Time;durP1;ratioP1;P1;durP2;ratioP2;P2;SDS_P1;SDS_P2;PMS_P1;PMS_P2;Temp;Humidity;BMP_temperature;BMP_pressure;BME280_temperature;BME280_humidity;BME280_pressure;Samples;Min_cycle;Max_cycle;Signal;HPM_P1;HPM_P2
2022/08/03 00:01:46;;;;;;;5.68;2.42;;;;;;;;;;6213434;23;20004;-90
2022/08/03 00:04:12;;;;;;;8.52;2.65;;;;;;;;;;6215873;23;20004;-90
2022/08/03 00:06:38;;;;;;;8.48;2.92;;;;;;;;;;6215331;23;20365;-91
2022/08/03 00:09:04;;;;;;;13.43;3.85;;;;;;;;;;6217105;22;20341;-91
2022/08/03 00:11:30;;;;;;;10.93;2.60;;;;;;;;;;6214507;23;20436;-91
2022/08/03 00:13:57;;;;;;;8.52;2.53;;;;;;;;;;6215302;23;20388;-91
2022/08/03 00:16:24;;;;;;;14.27;2.80;;;;;;;;;;6241931;23;20352;-92
2022/08/03 00:18:50;;;;;;;10.10;3.03;;;;;;;;;;6214911;23;20039;-91
2022/08/03 00:21:16;;;;;;;9.57;2.55;;;;;;;;;;6214793;23;20280;-91
2022/08/03 00:23:42;;;;;;;12.23;2.63;;;;;;;;;;6242123;23;20070;-91
2022/08/03 00:26:08;;;;;;;8.60;2.83;;;;;;;;;;6213804;23;20464;-91
2022/08/03 00:28:34;;;;;;;6.78;2.38;;;;;;;;;;6215474;23;20062;-91
2022/08/03 00:31:00;;;;;;;6.18;2.60;;;;;;;;;;6214884;23;20440;-91
2022/08/03 00:33:26;;;;;;;14.63;2.53;;;;;;;;;;6214956;23;20019;-91
2022/08/03 00:35:52;;;;;;;10.35;2.47;;;;;;;;;;6215005;23;20095;-91
2022/08/03 00:38:19;;;;;;;9.70;2.72;;;;;;;;;;6214751;23;20077;-90
2022/08/03 00:40:45;;;;;;;13.77;2.72;;;;;;;;;;6212096;23;20005;-90
2022/08/03 00:43:11;;;;;;;16.85;2.67;;;;;;;;;;6214370;23;20004;-91
2022/08/03 00:45:39;;;;;;;9.40;2.47;;;;;;;;;;6214631;23;20390;-90
2022/08/03 00:48:06;;;;;;;12.82;2.72;;;;;;;;;;6214573;23;20008;-91
2022/08/03 00:50:33;;;;;;;12.10;2.63;;;;;;;;;;6214576;23;20373;-91
2022/08/03 00:53:01;;;;;;;11.18;2.63;;;;;;;;;;6215003;23;20115;-91
2022/08/03 00:55:28;;;;;;;9.07;2.60;;;;;;;;;;6212886;23;20008;-91
2022/08/03 00:57:54;;;;;;;9.02;3.22;;;;;;;;;;6214605;23;20093;-90
2022/08/03 01:00:22;;;;;;;14.38;3.33;;;;;;;;;;6214328;23;20000;-91
2022/08/03 01:02:48;;;;;;;13.75;2.50;;;;;;;;;;6214208;23;20011;-89
2022/08/03 01:05:14;;;;;;;10.95;2.80;;;;;;;;;;6214886;23;20000;-91
2022/08/03 01:07:50;;;;;;;7.35;2.42;;;;;;;;;;6214109;23;20012;-90
2022/08/03 01:10:34;;;;;;;10.90;2.63;;;;;;;;;;6216464;22;20430;-91
2022/08/03 01:13:17;;;;;;;11.20;2.95;;;;;;;;;;6214360;23;20011;-90
2022/08/03 01:15:43;;;;;;;8.57;2.72;;;;;;;;;;6214855;23;20016;-90
2022/08/03 01:18:14;;;;;;;7.70;2.83;;;;;;;;;;6214783;23;20012;-90
2022/08/03 01:20:41;;;;;;;10.35;3.90;;;;;;;;;;6214435;23;20091;-90
2022/08/03 01:23:07;;;;;;;7.93;2.53;;;;;;;;;;6214746;23;20087;-90
2022/08/03 01:25:50;;;;;;;15.80;2.40;;;;;;;;;;6213861;23;20004;-91
2022/08/03 01:28:28;;;;;;;9.80;2.83;;;;;;;;;;6214403;23;20374;-90
2022/08/03 01:30:58;;;;;;;8.32;2.17;;;;;;;;;;6214175;23;20012;-90
2022/08/03 01:33:27;;;;;;;13.43;2.55;;;;;;;;;;6214681;23;20004;-90
2022/08/03 01:35:59;;;;;;;11.38;3.53;;;;;;;;;;6213764;23;20440;-90
2022/08/03 01:38:32;;;;;;;17.27;2.38;;;;;;;;;;6213932;23;20004;-91
2022/08/03 01:41:01;;;;;;;10.10;2.28;;;;;;;;;;6212976;23;20478;-91
2022/08/03 01:43:28;;;;;;;9.80;1.73;;;;;;;;;;6215381;23;20504;-91
2022/08/03 01:45:56;;;;;;;13.52;2.40;;;;;;;;;;6215076;23;20314;-91
2022/08/03 01:48:22;;;;;;;6.53;2.15;;;;;;;;;;6214436;23;20392;-90
2022/08/03 01:50:49;;;;;;;7.75;2.10;;;;;;;;;;6215113;23;20054;-91
2022/08/03 01:53:16;;;;;;;11.93;2.42;;;;;;;;;;6215989;23;20483;-90
2022/08/03 01:55:43;;;;;;;10.18;2.65;;;;;;;;;;6215041;23;20004;-90
2022/08/03 01:58:10;;;;;;;7.10;1.92;;;;;;;;;;6215234;23;20004;-90
2022/08/03 02:00:38;;;;;;;5.65;1.50;;;;;;;;;;6214861;23;20781;-91
2022/08/03 02:03:05;;;;;;;5.00;2.25;;;;;;;;;;6215028;23;20000;-90
2022/08/03 02:05:31;;;;;;;13.50;1.80;;;;;;;;;;6242083;23;20421;-89
2022/08/03 02:07:58;;;;;;;8.90;2.00;;;;;;;;;;6241521;23;20020;-91
2022/08/03 02:10:25;;;;;;;11.88;2.55;;;;;;;;;;6241924;22;20100;-90
2022/08/03 02:12:51;;;;;;;11.23;2.05;;;;;;;;;;6215171;23;20018;-90
2022/08/03 02:15:18;;;;;;;16.17;1.77;;;;;;;;;;6214771;23;20008;-90
2022/08/03 02:17:45;;;;;;;7.25;2.28;;;;;;;;;;6214400;23;20146;-90
2022/08/03 02:20:12;;;;;;;8.93;2.45;;;;;;;;;;6214853;23;20004;-91
2022/08/03 02:22:40;;;;;;;10.10;1.88;;;;;;;;;;6214609;23;20007;-90
2022/08/03 02:25:07;;;;;;;9.10;2.35;;;;;;;;;;6213469;23;20062;-91
2022/08/03 02:27:34;;;;;;;15.43;2.35;;;;;;;;;;6215243;23;20444;-91
2022/08/03 02:30:05;;;;;;;8.15;2.03;;;;;;;;;;6214989;23;20012;-91
2022/08/03 02:32:33;;;;;;;7.85;2.40;;;;;;;;;;6214538;23;20054;-90
2022/08/03 02:35:00;;;;;;;8.18;1.90;;;;;;;;;;6214559;23;20007;-90
2022/08/03 02:37:27;;;;;;;19.20;3.65;;;;;;;;;;6214806;23;20440;-90
2022/08/03 02:39:57;;;;;;;11.27;1.90;;;;;;;;;;6212820;23;20004;-90
2022/08/03 02:42:24;;;;;;;7.25;1.73;;;;;;;;;;6215270;23;20095;-90
2022/08/03 02:44:52;;;;;;;7.03;1.80;;;;;;;;;;6216914;23;20330;-90
2022/08/03 02:47:20;;;;;;;9.50;2.65;;;;;;;;;;6216902;23;20008;-90
2022/08/03 02:49:47;;;;;;;14.02;2.65;;;;;;;;;;6219680;23;20480;-90
2022/08/03 02:52:13;;;;;;;16.13;2.20;;;;;;;;;;6223297;23;20008;-90
2022/08/03 02:54:40;;;;;;;9.65;2.03;;;;;;;;;;6253103;23;20000;-91
2022/08/03 02:57:09;;;;;;;11.57;2.08;;;;;;;;;;6222969;23;20352;-89
2022/08/03 02:59:36;;;;;;;7.18;1.83;;;;;;;;;;6219851;23;20012;-90
2022/08/03 03:02:02;;;;;;;10.52;2.10;;;;;;;;;;6218694;23;20001;-90
2022/08/03 03:04:30;;;;;;;10.85;2.03;;;;;;;;;;6217647;23;20004;-91
2022/08/03 03:06:56;;;;;;;8.40;2.20;;;;;;;;;;6216651;23;20011;-90
2022/08/03 03:09:29;;;;;;;8.63;1.83;;;;;;;;;;6215887;22;20015;-91
2022/08/03 03:11:56;;;;;;;10.15;2.20;;;;;;;;;;6214978;23;20012;-90
2022/08/03 03:14:23;;;;;;;11.98;2.60;;;;;;;;;;6214784;23;20004;-91
2022/08/03 03:16:49;;;;;;;15.32;2.30;;;;;;;;;;6215273;23;20403;-90
2022/08/03 03:19:18;;;;;;;6.72;2.20;;;;;;;;;;6240942;23;20012;-90
2022/08/03 03:21:44;;;;;;;9.68;2.53;;;;;;;;;;6214646;23;20011;-91
2022/08/03 03:24:10;;;;;;;18.13;2.25;;;;;;;;;;6215484;23;20007;-90
2022/08/03 03:26:36;;;;;;;12.30;3.10;;;;;;;;;;6213703;23;20408;-91
2022/08/03 03:29:02;;;;;;;19.50;2.53;;;;;;;;;;6215260;23;20095;-91
2022/08/03 03:31:29;;;;;;;8.57;2.38;;;;;;;;;;6215056;23;20038;-90
2022/08/03 03:33:57;;;;;;;13.38;2.47;;;;;;;;;;6214401;23;20004;-90
2022/08/03 03:36:23;;;;;;;7.18;1.88;;;;;;;;;;6215385;23;20317;-90
2022/08/03 03:38:50;;;;;;;8.50;2.58;;;;;;;;;;6214432;23;20436;-90
2022/08/03 03:41:16;;;;;;;10.73;2.30;;;;;;;;;;6212927;23;20019;-91
2022/08/03 03:43:42;;;;;;;11.20;2.88;;;;;;;;;;6241779;23;20336;-90
2022/08/03 03:46:11;;;;;;;6.30;2.30;;;;;;;;;;6214633;23;20005;-90
2022/08/03 03:48:38;;;;;;;12.57;2.80;;;;;;;;;;6215125;23;20082;-91
2022/08/03 03:51:05;;;;;;;7.53;2.63;;;;;;;;;;6214296;23;20062;-91
2022/08/03 03:53:31;;;;;;;10.93;2.40;;;;;;;;;;6214444;23;20012;-91
2022/08/03 03:55:57;;;;;;;6.45;2.30;;;;;;;;;;6213085;23;20008;-90
2022/08/03 03:58:23;;;;;;;13.52;2.38;;;;;;;;;;6214184;23;20038;-90
2022/08/03 04:00:49;;;;;;;5.18;2.20;;;;;;;;;;6214567;23;20008;-91
2022/08/03 04:03:15;;;;;;;14.15;3.00;;;;;;;;;;6213776;23;20046;-91
2022/08/03 04:11:28;;;;;;;6.32;2.30;;;;;;;;;;6240781;22;20026;-91
2022/08/03 04:13:56;;;;;;;9.90;3.08;;;;;;;;;;6214624;23;20012;-90
2022/08/03 04:16:25;;;;;;;10.27;2.55;;;;;;;;;;6213836;23;20004;-91
2022/08/03 04:18:53;;;;;;;10.13;3.40;;;;;;;;;;6213596;23;20016;-90
2022/08/03 04:21:22;;;;;;;14.43;2.53;;;;;;;;;;6240047;23;20075;-90
2022/08/03 04:23:49;;;;;;;8.75;2.20;;;;;;;;;;6214167;23;20336;-90
2022/08/03 04:26:17;;;;;;;8.85;2.80;;;;;;;;;;6216822;23;20072;-93
2022/08/03 04:28:44;;;;;;;6.57;2.60;;;;;;;;;;6217735;23;20016;-92
2022/08/03 04:31:11;;;;;;;15.63;3.05;;;;;;;;;;6217634;23;20015;-93
2022/08/03 04:33:38;;;;;;;12.30;3.42;;;;;;;;;;6217590;23;20008;-92
2022/08/03 04:36:06;;;;;;;8.88;2.65;;;;;;;;;;6216933;23;20384;-93
2022/08/03 04:38:36;;;;;;;13.85;2.00;;;;;;;;;;6243618;23;20488;-93
2022/08/03 04:41:02;;;;;;;14.52;2.60;;;;;;;;;;6215253;23;20389;-93
2022/08/03 04:43:29;;;;;;;17.50;3.92;;;;;;;;;;6217830;23;20087;-92
2022/08/03 04:45:55;;;;;;;22.88;4.88;;;;;;;;;;6217504;23;20054;-93
2022/08/03 04:48:21;;;;;;;10.52;2.85;;;;;;;;;;6218415;23;20055;-93
2022/08/03 04:50:47;;;;;;;6.82;2.75;;;;;;;;;;6218359;23;20012;-93
2022/08/03 04:53:13;;;;;;;14.77;2.95;;;;;;;;;;6219056;23;20074;-92
2022/08/03 04:55:39;;;;;;;8.95;2.40;;;;;;;;;;6218017;23;20387;-93
2022/08/03 04:58:06;;;;;;;10.57;3.05;;;;;;;;;;6218913;23;20019;-93
2022/08/03 05:00:32;;;;;;;7.72;2.28;;;;;;;;;;6217800;23;20011;-93
2022/08/03 05:02:58;;;;;;;8.40;2.50;;;;;;;;;;6245607;23;19996;-93
2022/08/03 05:05:24;;;;;;;11.48;2.80;;;;;;;;;;6219212;23;20324;-93
2022/08/03 05:07:50;;;;;;;10.88;2.97;;;;;;;;;;6219216;23;20008;-93
2022/08/03 05:10:16;;;;;;;10.98;2.90;;;;;;;;;;6219390;22;20083;-93
2022/08/03 05:12:43;;;;;;;16.25;3.03;;;;;;;;;;6219755;23;20213;-92
2022/08/03 05:15:09;;;;;;;10.50;2.60;;;;;;;;;;6218988;23;20353;-93
2022/08/03 05:17:35;;;;;;;14.70;2.95;;;;;;;;;;6219325;23;20015;-93
2022/08/03 05:20:03;;;;;;;14.98;3.15;;;;;;;;;;6218763;23;20011;-93
2022/08/03 05:22:29;;;;;;;11.30;2.88;;;;;;;;;;6218904;23;20008;-93
2022/08/03 05:24:55;;;;;;;15.13;5.20;;;;;;;;;;6217010;23;20411;-94
2022/08/03 05:27:21;;;;;;;10.82;2.65;;;;;;;;;;6218469;23;20420;-92
2022/08/03 05:29:48;;;;;;;6.55;2.95;;;;;;;;;;6217419;23;20038;-93
2022/08/03 05:32:14;;;;;;;14.50;4.15;;;;;;;;;;6217948;23;20047;-93
2022/08/03 05:34:40;;;;;;;8.48;3.10;;;;;;;;;;6217281;23;20059;-94
2022/08/03 05:37:06;;;;;;;15.63;3.65;;;;;;;;;;6216754;23;20396;-92
2022/08/03 05:39:33;;;;;;;9.00;2.70;;;;;;;;;;6214903;23;20225;-93
2022/08/03 05:41:59;;;;;;;12.68;3.00;;;;;;;;;;6217280;23;20473;-93
2022/08/03 05:44:25;;;;;;;8.13;2.78;;;;;;;;;;6217765;23;20449;-93
2022/08/03 05:46:51;;;;;;;14.25;3.38;;;;;;;;;;6217973;23;20000;-94
2022/08/03 05:49:18;;;;;;;8.75;3.10;;;;;;;;;;6217615;23;20333;-94
2022/08/03 05:51:44;;;;;;;9.38;2.63;;;;;;;;;;6217449;23;20066;-92
2022/08/03 05:54:10;;;;;;;8.90;2.38;;;;;;;;;;6217421;23;20040;-93
2022/08/03 05:56:36;;;;;;;9.88;2.83;;;;;;;;;;6216798;23;20455;-93
2022/08/03 05:59:02;;;;;;;23.27;3.72;;;;;;;;;;6218407;23;20472;-93
2022/08/03 06:01:31;;;;;;;10.43;2.40;;;;;;;;;;6218086;23;20008;-93
2022/08/03 06:03:57;;;;;;;9.88;2.85;;;;;;;;;;6218043;23;20063;-93
2022/08/03 06:06:23;;;;;;;11.55;2.80;;;;;;;;;;6216975;23;20012;-93
2022/08/03 06:08:49;;;;;;;8.40;2.72;;;;;;;;;;6217719;23;20068;-93
2022/08/03 06:11:15;;;;;;;14.07;2.47;;;;;;;;;;6217459;22;20020;-93
2022/08/03 06:13:42;;;;;;;11.43;2.67;;;;;;;;;;6216494;23;20008;-93
2022/08/03 06:16:08;;;;;;;7.45;2.35;;;;;;;;;;6216590;23;20012;-93
2022/08/03 06:18:34;;;;;;;16.10;3.67;;;;;;;;;;6216510;23;20019;-93
2022/08/03 06:21:01;;;;;;;17.50;3.03;;;;;;;;;;6217070;23;19996;-93
2022/08/03 06:23:27;;;;;;;5.45;1.60;;;;;;;;;;6217880;23;20007;-93
2022/08/03 06:25:53;;;;;;;17.17;2.85;;;;;;;;;;6216045;23;20030;-93
2022/08/03 06:28:19;;;;;;;6.68;2.30;;;;;;;;;;6217523;23;20074;-93
2022/08/03 06:30:45;;;;;;;22.67;3.25;;;;;;;;;;6216907;23;20008;-93
2022/08/03 06:33:11;;;;;;;9.90;2.90;;;;;;;;;;6217027;23;20008;-93
2022/08/03 06:35:38;;;;;;;11.35;2.95;;;;;;;;;;6217108;23;20012;-93
2022/08/03 06:38:04;;;;;;;12.50;2.85;;;;;;;;;;6217469;23;20016;-93
2022/08/03 06:40:31;;;;;;;10.55;3.13;;;;;;;;;;6214828;23;20083;-94
2022/08/03 06:42:57;;;;;;;14.52;4.05;;;;;;;;;;6217291;23;20000;-93
2022/08/03 06:45:23;;;;;;;7.90;2.63;;;;;;;;;;6217734;23;20008;-93
2022/08/03 06:47:59;;;;;;;12.70;3.15;;;;;;;;;;6216347;23;20043;-93
2022/08/03 06:50:25;;;;;;;14.77;3.55;;;;;;;;;;6216595;23;20004;-93
2022/08/03 06:52:51;;;;;;;11.15;3.20;;;;;;;;;;6216607;23;20054;-93
2022/08/03 06:55:17;;;;;;;7.55;3.05;;;;;;;;;;6216024;23;20000;-93
2022/08/03 06:57:43;;;;;;;13.20;3.67;;;;;;;;;;6216305;23;20008;-94
2022/08/03 07:00:10;;;;;;;10.63;3.15;;;;;;;;;;6215420;23;20011;-93
2022/08/03 07:02:36;;;;;;;9.73;3.35;;;;;;;;;;6215803;23;20007;-94
2022/08/03 07:05:02;;;;;;;13.10;3.45;;;;;;;;;;6216024;23;20008;-93
2022/08/03 07:07:29;;;;;;;12.75;3.20;;;;;;;;;;6215943;23;20011;-93
2022/08/03 07:09:55;;;;;;;15.68;3.55;;;;;;;;;;6215527;22;20019;-94
2022/08/03 07:12:21;;;;;;;10.55;2.97;;;;;;;;;;6215827;23;20000;-93
2022/08/03 07:14:47;;;;;;;11.32;2.60;;;;;;;;;;6216199;23;20420;-93
2022/08/03 07:17:13;;;;;;;11.93;2.42;;;;;;;;;;6216685;23;20012;-93
2022/08/03 07:19:39;;;;;;;8.63;2.42;;;;;;;;;;6216142;23;20022;-92
2022/08/03 07:22:05;;;;;;;17.52;3.40;;;;;;;;;;6216657;23;20011;-93
2022/08/03 07:24:31;;;;;;;11.80;3.15;;;;;;;;;;6217378;23;20015;-93
2022/08/03 07:26:57;;;;;;;15.38;2.70;;;;;;;;;;6216805;23;19996;-93
2022/08/03 07:29:23;;;;;;;9.88;2.80;;;;;;;;;;6218642;23;20340;-93
2022/08/03 07:31:49;;;;;;;16.70;3.03;;;;;;;;;;6221741;23;20008;-93
2022/08/03 07:34:15;;;;;;;12.65;3.33;;;;;;;;;;6222058;23;20019;-93
2022/08/03 07:36:41;;;;;;;16.48;3.22;;;;;;;;;;6225218;23;20012;-92
2022/08/03 07:39:08;;;;;;;22.65;3.38;;;;;;;;;;6227629;23;20491;-94
2022/08/03 07:41:34;;;;;;;6.43;2.40;;;;;;;;;;6228335;23;20438;-92
2022/08/03 07:44:00;;;;;;;12.15;2.38;;;;;;;;;;6240228;23;20004;-92
2022/08/03 07:46:26;;;;;;;11.15;2.65;;;;;;;;;;6241051;23;20047;-92
2022/08/03 07:48:52;;;;;;;12.35;2.80;;;;;;;;;;6241250;22;19996;-94
2022/08/03 07:51:18;;;;;;;17.27;3.15;;;;;;;;;;6241360;23;20064;-92
2022/08/03 07:53:44;;;;;;;9.07;3.10;;;;;;;;;;6241783;23;20004;-93
2022/08/03 07:56:10;;;;;;;6.75;2.67;;;;;;;;;;6226216;23;20316;-94
2022/08/03 07:58:36;;;;;;;10.63;2.80;;;;;;;;;;6221961;23;20008;-93
2022/08/03 08:01:02;;;;;;;11.18;2.60;;;;;;;;;;6246594;23;20000;-93
2022/08/03 08:03:29;;;;;;;15.18;3.53;;;;;;;;;;6218014;23;20527;-93
2022/08/03 08:05:55;;;;;;;20.02;3.38;;;;;;;;;;6217257;23;20255;-93
2022/08/03 08:08:21;;;;;;;13.88;2.53;;;;;;;;;;6218110;23;20008;-93
2022/08/03 08:10:47;;;;;;;12.70;3.38;;;;;;;;;;6217543;22;20095;-94
2022/08/03 08:13:14;;;;;;;11.82;2.63;;;;;;;;;;6217560;23;20075;-93
2022/08/03 08:15:40;;;;;;;18.27;3.72;;;;;;;;;;6216947;23;20009;-94
2022/08/03 08:18:06;;;;;;;11.38;3.10;;;;;;;;;;6216621;23;20558;-93
2022/08/03 08:20:33;;;;;;;12.38;3.25;;;;;;;;;;6215983;23;20332;-93
2022/08/03 08:23:00;;;;;;;13.88;3.25;;;;;;;;;;6216277;23;20004;-93
2022/08/03 08:25:26;;;;;;;9.35;2.90;;;;;;;;;;6217964;23;20031;-93
2022/08/03 08:27:53;;;;;;;17.27;3.17;;;;;;;;;;6217952;23;20004;-93
2022/08/03 08:30:23;;;;;;;10.98;2.97;;;;;;;;;;6218513;23;20055;-93
2022/08/03 08:32:49;;;;;;;10.50;2.63;;;;;;;;;;6218400;23;20409;-93
2022/08/03 08:35:16;;;;;;;15.07;2.75;;;;;;;;;;6218710;23;20042;-93
2022/08/03 08:37:42;;;;;;;11.27;2.58;;;;;;;;;;6217699;23;20004;-93
2022/08/03 08:40:09;;;;;;;10.27;2.38;;;;;;;;;;6216550;23;20054;-93
2022/08/03 08:42:44;;;;;;;12.68;3.25;;;;;;;;;;6218665;23;20464;-93
2022/08/03 08:45:10;;;;;;;9.10;2.92;;;;;;;;;;6218413;23;20004;-93
2022/08/03 08:47:40;;;;;;;10.40;3.13;;;;;;;;;;6217881;23;20007;-93
2022/08/03 08:50:07;;;;;;;15.18;3.10;;;;;;;;;;6218529;23;20012;-93
2022/08/03 08:52:34;;;;;;;23.27;3.28;;;;;;;;;;6218029;23;20012;-93
2022/08/03 08:55:05;;;;;;;17.92;3.33;;;;;;;;;;6217174;23;20008;-93
2022/08/03 08:57:36;;;;;;;19.65;3.38;;;;;;;;;;6217979;23;20007;-93
2022/08/03 09:00:04;;;;;;;10.20;3.55;;;;;;;;;;6218154;23;20403;-94
2022/08/03 09:02:30;;;;;;;13.15;3.10;;;;;;;;;;6218090;23;20420;-93
2022/08/03 09:04:57;;;;;;;16.80;3.30;;;;;;;;;;6217509;23;20309;-93
2022/08/03 09:07:23;;;;;;;15.25;3.28;;;;;;;;;;6218011;23;20012;-93
2022/08/03 09:09:49;;;;;;;22.42;3.30;;;;;;;;;;6243590;23;20004;-92
2022/08/03 09:12:15;;;;;;;16.08;3.20;;;;;;;;;;6218725;22;20356;-94
2022/08/03 09:14:41;;;;;;;7.47;2.75;;;;;;;;;;6217091;23;20015;-93
2022/08/03 09:17:08;;;;;;;13.70;3.88;;;;;;;;;;6217683;23;20031;-93
2022/08/03 09:19:34;;;;;;;11.90;3.17;;;;;;;;;;6217867;23;20070;-93
2022/08/03 09:22:14;;;;;;;8.15;3.38;;;;;;;;;;6217630;23;20008;-93
2022/08/03 09:25:00;;;;;;;14.07;4.65;;;;;;;;;;6217109;23;20027;-94
2022/08/03 09:27:29;;;;;;;12.00;3.50;;;;;;;;;;6217375;23;20737;-93
2022/08/03 09:29:55;;;;;;;7.53;2.85;;;;;;;;;;6217742;23;20012;-93
2022/08/03 09:32:22;;;;;;;16.20;4.07;;;;;;;;;;6217347;23;20000;-94
2022/08/03 09:34:48;;;;;;;14.95;3.70;;;;;;;;;;6217296;23;20012;-94
2022/08/03 09:37:15;;;;;;;10.13;3.47;;;;;;;;;;6217452;23;20083;-94
2022/08/03 09:39:41;;;;;;;14.65;3.17;;;;;;;;;;6215964;23;20004;-94
2022/08/03 09:42:16;;;;;;;14.20;3.92;;;;;;;;;;6217007;23;20021;-93
2022/08/03 09:44:43;;;;;;;19.83;3.70;;;;;;;;;;6217735;23;20028;-94
2022/08/03 09:47:10;;;;;;;9.93;3.95;;;;;;;;;;6217050;23;20054;-93
2022/08/03 09:49:55;;;;;;;14.10;3.80;;;;;;;;;;6217651;23;20008;-94
2022/08/03 09:52:36;;;;;;;11.88;3.50;;;;;;;;;;6217644;23;20436;-93
2022/08/03 09:55:07;;;;;;;11.77;3.40;;;;;;;;;;6217329;23;20019;-93
2022/08/03 09:57:33;;;;;;;19.95;3.47;;;;;;;;;;6217224;23;20008;-94
2022/08/03 10:00:08;;;;;;;13.40;3.03;;;;;;;;;;6217905;23;20008;-94
2022/08/03 10:02:35;;;;;;;16.60;3.67;;;;;;;;;;6217310;23;20463;-94
2022/08/03 10:05:01;;;;;;;10.20;3.42;;;;;;;;;;6216643;23;20053;-94
2022/08/03 10:07:27;;;;;;;12.70;3.78;;;;;;;;;;6217815;23;20015;-93
2022/08/03 10:09:58;;;;;;;12.93;3.38;;;;;;;;;;6215965;23;20038;-94
2022/08/03 10:12:25;;;;;;;11.68;3.15;;;;;;;;;;6243857;22;20360;-94
2022/08/03 10:14:51;;;;;;;9.68;3.47;;;;;;;;;;6217065;23;20014;-93
2022/08/03 10:17:18;;;;;;;20.40;4.38;;;;;;;;;;6216681;23;20083;-93
2022/08/03 10:19:45;;;;;;;17.90;3.72;;;;;;;;;;6215825;23;20280;-94
2022/08/03 10:22:16;;;;;;;14.30;4.07;;;;;;;;;;6216511;23;20008;-94
2022/08/03 10:25:02;;;;;;;12.48;3.40;;;;;;;;;;6242103;23;20126;-93
2022/08/03 10:27:33;;;;;;;13.60;3.80;;;;;;;;;;6215948;23;20387;-93
2022/08/03 10:30:03;;;;;;;12.07;3.80;;;;;;;;;;6216493;23;20118;-94
2022/08/03 10:32:40;;;;;;;14.82;3.55;;;;;;;;;;6216598;23;20004;-94
2022/08/03 10:35:15;;;;;;;13.23;3.95;;;;;;;;;;6215593;23;20008;-94
2022/08/03 10:37:42;;;;;;;13.13;3.70;;;;;;;;;;6216350;23;20503;-93
2022/08/03 10:40:10;;;;;;;21.55;3.28;;;;;;;;;;6213933;23;20031;-93
2022/08/03 10:42:36;;;;;;;9.07;3.63;;;;;;;;;;6216415;23;20362;-93
2022/08/03 10:45:07;;;;;;;15.70;3.35;;;;;;;;;;6216719;23;20054;-93
2022/08/03 10:47:34;;;;;;;18.67;3.92;;;;;;;;;;6216789;23;20008;-93
2022/08/03 10:50:00;;;;;;;16.67;3.95;;;;;;;;;;6216010;23;20015;-94
2022/08/03 10:52:27;;;;;;;14.68;3.25;;;;;;;;;;6216508;23;20796;-94
2022/08/03 10:57:46;;;;;;;9.63;3.25;;;;;;;;;;6243426;23;20024;-94
2022/08/03 11:00:23;;;;;;;11.73;3.45;;;;;;;;;;6216818;23;20000;-93
2022/08/03 11:03:05;;;;;;;20.23;3.28;;;;;;;;;;6216049;23;20030;-93
2022/08/03 11:05:33;;;;;;;19.50;3.75;;;;;;;;;;6216542;23;20004;-93
2022/08/03 11:08:18;;;;;;;13.00;3.33;;;;;;;;;;6217085;23;20374;-93
2022/08/03 11:10:59;;;;;;;19.33;3.93;;;;;;;;;;6217311;22;20016;-93
2022/08/03 11:13:27;;;;;;;12.10;3.90;;;;;;;;;;6216478;23;20710;-93
2022/08/03 11:15:54;;;;;;;20.48;3.67;;;;;;;;;;6242990;23;20028;-93
2022/08/03 11:18:20;;;;;;;19.75;3.47;;;;;;;;;;6216131;23;20012;-93
2022/08/03 11:20:46;;;;;;;25.55;4.45;;;;;;;;;;6243067;23;20534;-93
2022/08/03 11:23:13;;;;;;;20.17;4.88;;;;;;;;;;6216529;23;20000;-93
2022/08/03 11:26:17;;;;;;;15.00;3.38;;;;;;;;;;6215451;23;20407;-93
2022/08/03 11:28:45;;;;;;;22.27;4.95;;;;;;;;;;6067583;23;20474;-93
2022/08/03 11:31:26;;;;;;;14.95;3.20;;;;;;;;;;6067698;23;20025;-93
2022/08/03 11:34:09;;;;;;;10.57;3.38;;;;;;;;;;6154573;23;20004;-93
2022/08/03 11:36:53;;;;;;;17.77;4.18;;;;;;;;;;6216561;23;20004;-93
2022/08/03 11:39:19;;;;;;;13.93;3.63;;;;;;;;;;6214472;23;20444;-93
2022/08/03 11:41:45;;;;;;;16.65;4.13;;;;;;;;;;6216375;23;20223;-93
2022/08/03 11:44:31;;;;;;;21.00;5.00;;;;;;;;;;6216525;23;20054;-94
2022/08/03 11:46:58;;;;;;;19.35;4.32;;;;;;;;;;6216475;23;20440;-93
2022/08/03 11:49:24;;;;;;;14.18;5.15;;;;;;;;;;6216047;23;20039;-93
2022/08/03 11:51:53;;;;;;;17.77;4.18;;;;;;;;;;6216788;23;20436;-93
2022/08/03 11:54:19;;;;;;;18.13;4.50;;;;;;;;;;6216297;23;20015;-93
2022/08/03 11:56:47;;;;;;;14.93;4.10;;;;;;;;;;6216405;23;20005;-93
2022/08/03 11:59:13;;;;;;;20.88;4.47;;;;;;;;;;6218751;23;20043;-93
2022/08/03 12:01:39;;;;;;;28.35;5.78;;;;;;;;;;6218435;23;20444;-92
2022/08/03 12:04:05;;;;;;;13.32;4.10;;;;;;;;;;6220643;23;20363;-94
2022/08/03 12:09:16;;;;;;;19.77;4.78;;;;;;;;;;6251051;23;20019;-92
2022/08/03 12:11:42;;;;;;;20.90;4.93;;;;;;;;;;6230596;22;20016;-91
2022/08/03 12:14:15;;;;;;;31.15;5.68;;;;;;;;;;6229835;23;20015;-92
2022/08/03 12:16:46;;;;;;;20.20;4.72;;;;;;;;;;6232307;23;20058;-92
2022/08/03 12:19:12;;;;;;;15.90;4.03;;;;;;;;;;6242768;23;20067;-93
2022/08/03 12:21:48;;;;;;;18.65;4.18;;;;;;;;;;6242759;23;19999;-92
2022/08/03 12:24:14;;;;;;;22.23;4.28;;;;;;;;;;6242339;23;20012;-92
2022/08/03 12:26:49;;;;;;;18.73;4.25;;;;;;;;;;6268456;22;19988;-92
2022/08/03 12:29:19;;;;;;;27.02;3.85;;;;;;;;;;6238976;23;20019;-92
2022/08/03 12:31:45;;;;;;;21.55;4.03;;;;;;;;;;6222783;23;20015;-92
2022/08/03 12:34:12;;;;;;;18.25;4.13;;;;;;;;;;6221259;23;20004;-92
2022/08/03 12:36:38;;;;;;;21.83;3.70;;;;;;;;;;6220000;23;20440;-92
2022/08/03 12:39:06;;;;;;;15.68;3.08;;;;;;;;;;6217939;23;20436;-91
2022/08/03 12:41:34;;;;;;;17.92;3.97;;;;;;;;;;6218244;23;20001;-92
2022/08/03 12:44:01;;;;;;;19.50;4.75;;;;;;;;;;6218195;23;20063;-92
2022/08/03 12:46:34;;;;;;;14.55;4.18;;;;;;;;;;6217655;23;20082;-93
2022/08/03 12:49:02;;;;;;;18.48;4.35;;;;;;;;;;6217900;23;20062;-92
2022/08/03 12:51:29;;;;;;;28.67;3.97;;;;;;;;;;6244723;23;20000;-92
2022/08/03 12:53:56;;;;;;;18.67;3.83;;;;;;;;;;6218279;23;20012;-93
2022/08/03 12:56:22;;;;;;;14.18;3.40;;;;;;;;;;6217082;23;20004;-92
2022/08/03 12:58:49;;;;;;;22.08;3.97;;;;;;;;;;6217962;23;20028;-92
2022/08/03 13:01:15;;;;;;;16.27;4.82;;;;;;;;;;6217438;23;20004;-92
2022/08/03 13:03:42;;;;;;;19.75;4.93;;;;;;;;;;6217454;23;20000;-92
2022/08/03 13:06:15;;;;;;;17.08;4.28;;;;;;;;;;6216995;23;20445;-92
2022/08/03 13:08:42;;;;;;;21.27;4.28;;;;;;;;;;6217750;23;20064;-93
2022/08/03 13:11:27;;;;;;;21.00;4.35;;;;;;;;;;6218160;22;20027;-92
2022/08/03 13:13:53;;;;;;;20.67;5.25;;;;;;;;;;6217356;23;20024;-93
2022/08/03 13:16:20;;;;;;;19.95;5.38;;;;;;;;;;6217298;23;20014;-92
2022/08/03 13:18:47;;;;;;;20.33;4.60;;;;;;;;;;6216639;23;20088;-92
2022/08/03 13:21:14;;;;;;;22.40;4.28;;;;;;;;;;6217330;23;20031;-92
2022/08/03 13:23:40;;;;;;;19.08;4.47;;;;;;;;;;6216726;23;20011;-92
2022/08/03 13:26:07;;;;;;;20.63;4.20;;;;;;;;;;6216138;23;20066;-92
2022/08/03 13:28:32;;;;;;;18.92;4.40;;;;;;;;;;6217863;23;20000;-92
2022/08/03 13:30:59;;;;;;;25.52;5.00;;;;;;;;;;6217495;23;20464;-92
2022/08/03 13:33:26;;;;;;;25.48;4.38;;;;;;;;;;6218197;23;20432;-92
2022/08/03 13:35:52;;;;;;;15.05;4.55;;;;;;;;;;6217570;23;20432;-92
2022/08/03 13:38:18;;;;;;;18.33;4.50;;;;;;;;;;6219075;23;20004;-92
2022/08/03 13:40:44;;;;;;;17.30;4.20;;;;;;;;;;6215336;23;20004;-92
2022/08/03 13:43:11;;;;;;;14.02;4.40;;;;;;;;;;6218475;23;20018;-92
2022/08/03 13:45:37;;;;;;;17.33;5.20;;;;;;;;;;6217576;23;20014;-92
2022/08/03 13:48:04;;;;;;;22.02;4.40;;;;;;;;;;6217369;23;20004;-92
2022/08/03 13:50:30;;;;;;;21.60;4.75;;;;;;;;;;6218177;23;20079;-92
2022/08/03 13:52:56;;;;;;;17.73;3.88;;;;;;;;;;6217644;23;20093;-92
2022/08/03 13:55:23;;;;;;;14.45;3.95;;;;;;;;;;6216109;23;20008;-92
2022/08/03 13:57:49;;;;;;;15.45;4.05;;;;;;;;;;6217340;23;20429;-92
2022/08/03 14:00:16;;;;;;;15.98;4.35;;;;;;;;;;6217108;23;20007;-92
2022/08/03 14:02:42;;;;;;;13.10;4.45;;;;;;;;;;6215580;23;20000;-92
2022/08/03 14:05:09;;;;;;;14.52;4.65;;;;;;;;;;6216741;23;20008;-92
2022/08/03 14:07:35;;;;;;;12.95;4.22;;;;;;;;;;6216868;23;20004;-92
2022/08/03 14:10:01;;;;;;;17.17;4.40;;;;;;;;;;6217039;23;20444;-92
2022/08/03 14:12:41;;;;;;;15.68;3.70;;;;;;;;;;6219409;22;20019;-93
2022/08/03 14:15:08;;;;;;;15.23;4.25;;;;;;;;;;6217858;23;20022;-93
2022/08/03 14:17:34;;;;;;;21.85;4.68;;;;;;;;;;6244207;23;20272;-93
2022/08/03 14:20:01;;;;;;;24.90;4.53;;;;;;;;;;6217108;23;20252;-92
2022/08/03 14:22:27;;;;;;;18.45;5.47;;;;;;;;;;6217400;23;20004;-93
2022/08/03 14:24:53;;;;;;;15.95;4.30;;;;;;;;;;6216826;23;20157;-92
2022/08/03 14:27:19;;;;;;;18.05;5.00;;;;;;;;;;6217017;23;20094;-93
2022/08/03 14:29:45;;;;;;;12.45;3.70;;;;;;;;;;6216888;23;20348;-92
2022/08/03 14:32:11;;;;;;;20.08;4.20;;;;;;;;;;6216805;23;20035;-93
2022/08/03 14:34:37;;;;;;;16.77;5.05;;;;;;;;;;6216353;23;20016;-92
2022/08/03 14:37:03;;;;;;;17.75;4.93;;;;;;;;;;6215679;23;20012;-92
2022/08/03 14:39:29;;;;;;;12.10;4.80;;;;;;;;;;6214680;23;20004;-92
2022/08/03 14:41:55;;;;;;;15.00;5.00;;;;;;;;;;6215373;23;20484;-92
2022/08/03 14:44:21;;;;;;;17.85;4.10;;;;;;;;;;6215994;23;20000;-93
2022/08/03 14:46:47;;;;;;;17.30;4.55;;;;;;;;;;6215843;23;20004;-92
2022/08/03 14:49:13;;;;;;;12.25;3.97;;;;;;;;;;6215744;23;20038;-93